Time;durP1;ratioP1;P1;durP2;ratioP2;P2;SDS_P1;SDS_P2;PMS_P1;PMS_P2;Temp;Humidity;BMP_temperature;BMP_pressure;BME280_temperature;BME280_humidity;BME280_pressure;Samples;Min_cycle;Max_cycle;Signal;HPM_P1;HPM_P2
2021/07/27 00:04:25;;;;;;;;;;;;;;;;;;10304695;28;20035;-58
2021/07/27 00:09:22;;;;;;;;;;;;;;;;;;10322508;28;19921;-60
2021/07/27 00:14:19;;;;;;;;;;;;;;;;;;10321612;28;19925;-60
2021/07/27 00:19:17;;;;;;;;;;;;;;;;;;10311058;28;19921;-61
2021/07/27 00:24:14;;;;;;;;;;;;;;;;;;10339708;28;20003;-60
2021/07/27 00:29:12;;;;;;;;;;;;;;;;;;10304348;28;19970;-59
2021/07/27 00:34:09;;;;;;;;;;;;;;;;;;10312504;28;19921;-60
2021/07/27 00:39:06;;;;;;;;;;;;;;;;;;10320728;28;19924;-60
2021/07/27 00:44:03;;;;;;;;;;;;;;;;;;10324688;28;19920;-60
2021/07/27 00:49:01;;;;;;;;;;;;;;;;;;10317128;28;20347;-63
2021/07/27 00:53:58;;;;;;;;;;;;;;;;;;10311814;28;20286;-61
2021/07/27 00:58:55;;;;;;;;;;;;;;;;;;10319090;28;19920;-62
2021/07/27 01:03:52;;;;;;;;;;;;;;;;;;10311733;28;20005;-62
2021/07/27 01:08:50;;;;;;;;;;;;;;;;;;10294782;28;19920;-62
2021/07/27 01:13:47;;;;;;;;;;;;;;;;;;10306557;28;20565;-62
2021/07/27 01:19:00;;;;;;;;;;;;;;;;;;10316466;28;20417;-63
2021/07/27 01:39:46;;;;;;;;;;;;;;;;;;10311646;28;19925;-63
2021/07/27 01:44:44;;;;;;;;;;;;;;;;;;10312604;28;19921;-62
2021/07/27 01:49:41;;;;;;;;;;;;;;;;;;10308517;28;19921;-62
2021/07/27 01:54:44;;;;;;;;;;;;;;;;;;10314850;28;21428;-62
2021/07/27 01:59:42;;;;;;;;;;;;;;;;;;10331073;28;20012;-64
2021/07/27 02:04:39;;;;;;;;;;;;;;;;;;10310303;28;20019;-62
2021/07/27 02:09:40;;;;;;;;;;;;;;;;;;10321446;28;20595;-63
2021/07/27 02:19:53;;;;;;;;;;;;;;;;;;10323464;28;19917;-63
2021/07/27 02:24:51;;;;;;;;;;;;;;;;;;10321522;28;19917;-64
2021/07/27 02:29:48;;;;;;;;;;;;;;;;;;10324813;28;19935;-63
2021/07/27 02:34:45;;;;;;;;;;;;;;;;;;10315424;28;19925;-63
2021/07/27 02:39:42;;;;;;;;;;;;;;;;;;10331378;28;20011;-63
2021/07/27 02:44:40;;;;;;;;;;;;;;;;;;10306635;28;19917;-63
2021/07/27 02:49:37;;;;;;;;;;;;;;;;;;10324038;28;19921;-63
2021/07/27 02:54:34;;;;;;;;;;;;;;;;;;10317690;28;20262;-62
2021/07/27 02:59:31;;;;;;;;;;;;;;;;;;10338066;28;20392;-62
2021/07/27 03:04:29;;;;;;;;;;;;;;;;;;10308879;28;19924;-61
2021/07/27 03:09:31;;;;;;;;;;;;;;;;;;10322252;28;19920;-62
2021/07/27 03:14:28;;;;;;;;;;;;;;;;;;10331896;28;20398;-64
2021/07/27 03:19:25;;;;;;;;;;;;;;;;;;10325328;28;19924;-63
2021/07/27 03:24:23;;;;;;;;;;;;;;;;;;10323373;28;20460;-63
2021/07/27 03:29:20;;;;;;;;;;;;;;;;;;10320562;28;19932;-64
2021/07/27 03:34:17;;;;;;;;;;;;;;;;;;10306655;28;19927;-63
2021/07/27 03:39:15;;;;;;;;;;;;;;;;;;10310046;28;19990;-64
2021/07/27 03:44:13;;;;;;;;;;;;;;;;;;10314983;28;19920;-62
2021/07/27 03:49:10;;;;;;;;;;;;;;;;;;10309119;28;19971;-62
2021/07/27 03:54:07;;;;;;;;;;;;;;;;;;10325267;28;19927;-62
2021/07/27 03:59:05;;;;;;;;;;;;;;;;;;10319168;28;20271;-63
2021/07/27 04:04:02;;;;;;;;;;;;;;;;;;10309666;28;19990;-62
2021/07/27 04:08:59;;;;;;;;;;;;;;;;;;10318160;28;19936;-62
2021/07/27 04:13:56;;;;;;;;;;;;;;;;;;10307560;28;20352;-62
2021/07/27 04:18:54;;;;;;;;;;;;;;;;;;10335519;28;20366;-62
2021/07/27 04:23:51;;;;;;;;;;;;;;;;;;10315848;28;19919;-62
2021/07/27 04:28:48;;;;;;;;;;;;;;;;;;10319625;28;19975;-61
2021/07/27 04:33:45;;;;;;;;;;;;;;;;;;10310758;28;19931;-61
2021/07/27 04:38:43;;;;;;;;;;;;;;;;;;10317818;28;19913;-62
2021/07/27 04:43:40;;;;;;;;;;;;;;;;;;10312824;28;20020;-62
2021/07/27 04:48:39;;;;;;;;;;;;;;;;;;10320294;28;19925;-62
2021/07/27 04:53:38;;;;;;;;;;;;;;;;;;10312743;28;19917;-63
2021/07/27 04:58:35;;;;;;;;;;;;;;;;;;10328456;28;19921;-63
2021/07/27 05:03:32;;;;;;;;;;;;;;;;;;10325494;28;19985;-61
2021/07/27 05:08:29;;;;;;;;;;;;;;;;;;10326440;28;20002;-63
2021/07/27 05:13:27;;;;;;;;;;;;;;;;;;10334373;28;20016;-64
2021/07/27 05:18:24;;;;;;;;;;;;;;;;;;10336651;28;19963;-63
2021/07/27 05:23:22;;;;;;;;;;;;;;;;;;10321363;28;19917;-62
2021/07/27 05:28:19;;;;;;;;;;;;;;;;;;10321207;28;19921;-63
2021/07/27 05:33:16;;;;;;;;;;;;;;;;;;10331227;28;19989;-63
2021/07/27 05:38:13;;;;;;;;;;;;;;;;;;10328503;28;20000;-61
2021/07/27 05:43:10;;;;;;;;;;;;;;;;;;10327863;28;20394;-63
2021/07/27 05:48:08;;;;;;;;;;;;;;;;;;10335480;28;19928;-62
2021/07/27 05:53:05;;;;;;;;;;;;;;;;;;10332653;28;19916;-63
2021/07/27 05:58:02;;;;;;;;;;;;;;;;;;10312995;28;20048;-62
2021/07/27 06:02:59;;;;;;;;;;;;;;;;;;10322629;28;20271;-63
2021/07/27 06:07:57;;;;;;;;;;;;;;;;;;10327293;28;20533;-63
2021/07/27 06:12:54;;;;;;;;;;;;;;;;;;10331949;28;19917;-63
2021/07/27 06:17:52;;;;;;;;;;;;;;;;;;10320191;28;19921;-63
2021/07/27 06:22:49;;;;;;;;;;;;;;;;;;10332239;28;19997;-63
2021/07/27 06:27:46;;;;;;;;;;;;;;;;;;10329713;28;19929;-61
2021/07/27 06:32:43;;;;;;;;;;;;;;;;;;10319483;28;20789;-62
2021/07/27 06:37:41;;;;;;;;;;;;;;;;;;10335727;28;20004;-62
2021/07/27 06:42:38;;;;;;;;;;;;;;;;;;10322945;28;19920;-63
2021/07/27 06:47:35;;;;;;;;;;;;;;;;;;10328428;28;19946;-63
2021/07/27 06:52:32;;;;;;;;;;;;;;;;;;10321854;28;19928;-63
2021/07/27 06:57:30;;;;;;;;;;;;;;;;;;10311735;28;20437;-62
2021/07/27 07:02:30;;;;;;;;;;;;;;;;;;10335839;28;19917;-60
2021/07/27 07:07:27;;;;;;;;;;;;;;;;;;10326825;28;19950;-63
2021/07/27 07:12:26;;;;;;;;;;;;;;;;;;10304015;28;19917;-62
2021/07/27 07:17:23;;;;;;;;;;;;;;;;;;10305958;28;20023;-62
2021/07/27 07:22:21;;;;;;;;;;;;;;;;;;10324804;28;19965;-62
2021/07/27 07:27:18;;;;;;;;;;;;;;;;;;10324964;28;19929;-63
2021/07/27 07:32:15;;;;;;;;;;;;;;;;;;10321190;28;19924;-62
2021/07/27 07:37:12;;;;;;;;;;;;;;;;;;10323353;28;19916;-64
2021/07/27 07:42:10;;;;;;;;;;;;;;;;;;10328619;28;19928;-62
2021/07/27 07:47:07;;;;;;;;;;;;;;;;;;10319483;28;19974;-63
2021/07/27 07:52:04;;;;;;;;;;;;;;;;;;10323881;28;19924;-62
2021/07/27 07:57:01;;;;;;;;;;;;;;;;;;10320963;28;19921;-62
2021/07/27 08:01:59;;;;;;;;;;;;;;;;;;10314525;28;19932;-64
2021/07/27 08:06:56;;;;;;;;;;;;;;;;;;10315753;28;20056;-63
2021/07/27 08:11:54;;;;;;;;;;;;;;;;;;10329333;28;20293;-62
2021/07/27 08:16:52;;;;;;;;;;;;;;;;;;10335452;28;20263;-62
2021/07/27 08:21:50;;;;;;;;;;;;;;;;;;10315863;28;20375;-61
2021/07/27 08:26:47;;;;;;;;;;;;;;;;;;10332042;28;19921;-62
2021/07/27 08:31:49;;;;;;;;;;;;;;;;;;10331416;28;19924;-64
2021/07/27 08:36:46;;;;;;;;;;;;;;;;;;10316647;28;19917;-62
2021/07/27 08:41:44;;;;;;;;;;;;;;;;;;10317302;28;19920;-63
2021/07/27 08:46:41;;;;;;;;;;;;;;;;;;10313966;28;20313;-63
2021/07/27 08:51:38;;;;;;;;;;;;;;;;;;10313444;28;19917;-63
2021/07/27 08:56:36;;;;;;;;;;;;;;;;;;10310868;28;19917;-65
2021/07/27 09:01:33;;;;;;;;;;;;;;;;;;10324065;28;19917;-64
2021/07/27 09:06:30;;;;;;;;;;;;;;;;;;10316384;28;19921;-65
2021/07/27 09:11:28;;;;;;;;;;;;;;;;;;10320482;28;19932;-63
2021/07/27 09:16:25;;;;;;;;;;;;;;;;;;10319183;28;20347;-61
2021/07/27 09:21:22;;;;;;;;;;;;;;;;;;10310863;28;20115;-62
2021/07/27 09:26:21;;;;;;;;;;;;;;;;;;10303483;28;20396;-61
2021/07/27 09:31:18;;;;;;;;;;;;;;;;;;10318131;28;20011;-62
2021/07/27 09:36:16;;;;;;;;;;;;;;;;;;10326536;28;20043;-62
2021/07/27 09:41:13;;;;;;;;;;;;;;;;;;10310910;28;19997;-63
2021/07/27 09:46:10;;;;;;;;;;;;;;;;;;10328783;28;19927;-62
2021/07/27 09:51:08;;;;;;;;;;;;;;;;;;10326236;28;19955;-62
2021/07/27 09:56:05;;;;;;;;;;;;;;;;;;10310543;28;19927;-61
2021/07/27 10:01:02;;;;;;;;;;;;;;;;;;10312434;28;19925;-61
2021/07/27 10:06:00;;;;;;;;;;;;;;;;;;10313485;28;20020;-61
2021/07/27 10:10:57;;;;;;;;;;;;;;;;;;10329440;28;19925;-61
2021/07/27 10:15:55;;;;;;;;;;;;;;;;;;10332969;28;20000;-60
2021/07/27 10:20:53;;;;;;;;;;;;;;;;;;10327064;28;19917;-61
2021/07/27 10:25:50;;;;;;;;;;;;;;;;;;10336677;28;19921;-61
2021/07/27 10:30:47;;;;;;;;;;;;;;;;;;10316590;28;19925;-61
2021/07/27 10:35:45;;;;;;;;;;;;;;;;;;10313664;28;19921;-62
2021/07/27 10:40:42;;;;;;;;;;;;;;;;;;10322696;28;19931;-62
2021/07/27 10:45:39;;;;;;;;;;;;;;;;;;10309722;28;19921;-59
2021/07/27 10:50:37;;;;;;;;;;;;;;;;;;10318030;28;19931;-61
2021/07/27 10:55:34;;;;;;;;;;;;;;;;;;10315997;28;19971;-61
2021/07/27 11:00:31;;;;;;;;;;;;;;;;;;10315932;28;19939;-62
2021/07/27 11:05:29;;;;;;;;;;;;;;;;;;10339892;28;20455;-62
2021/07/27 11:10:26;;;;;;;;;;;;;;;;;;10324234;28;19982;-62
2021/07/27 11:15:23;;;;;;;;;;;;;;;;;;10323290;28;20059;-61
2021/07/27 11:20:21;;;;;;;;;;;;;;;;;;10323848;28;19917;-62
2021/07/27 11:25:19;;;;;;;;;;;;;;;;;;10322488;28;19916;-62
2021/07/27 11:30:16;;;;;;;;;;;;;;;;;;10313354;28;19974;-62
2021/07/27 11:35:13;;;;;;;;;;;;;;;;;;10303196;28;19957;-63
2021/07/27 11:40:10;;;;;;;;;;;;;;;;;;10324378;28;19921;-62
2021/07/27 11:45:08;;;;;;;;;;;;;;;;;;10321207;28;19917;-61
2021/07/27 11:50:05;;;;;;;;;;;;;;;;;;10322428;28;20286;-62
2021/07/27 11:55:03;;;;;;;;;;;;;;;;;;10331812;28;19928;-62
2021/07/27 12:00:00;;;;;;;;;;;;;;;;;;10325088;28;19928;-63
2021/07/27 12:04:57;;;;;;;;;;;;;;;;;;10319501;28;19923;-62
2021/07/27 12:09:54;;;;;;;;;;;;;;;;;;10322702;28;20439;-62
2021/07/27 12:14:52;;;;;;;;;;;;;;;;;;10317826;28;19964;-63
2021/07/27 12:19:49;;;;;;;;;;;;;;;;;;10318356;28;19928;-62
2021/07/27 12:24:46;;;;;;;;;;;;;;;;;;10320184;28;20003;-62
2021/07/27 12:29:44;;;;;;;;;;;;;;;;;;10326608;28;20045;-62
2021/07/27 12:34:41;;;;;;;;;;;;;;;;;;10315117;28;20000;-62
2021/07/27 12:39:38;;;;;;;;;;;;;;;;;;10314628;28;19921;-62
2021/07/27 12:44:36;;;;;;;;;;;;;;;;;;10308008;28;19916;-62
2021/07/27 12:49:34;;;;;;;;;;;;;;;;;;10304374;28;20101;-62
2021/07/27 12:54:31;;;;;;;;;;;;;;;;;;10298941;28;20070;-62
2021/07/27 12:59:28;;;;;;;;;;;;;;;;;;10326345;28;19917;-62
2021/07/27 13:04:25;;;;;;;;;;;;;;;;;;10299500;28;20486;-62
2021/07/27 13:09:23;;;;;;;;;;;;;;;;;;10333883;28;20259;-62
2021/07/27 13:14:20;;;;;;;;;;;;;;;;;;10279966;28;19921;-63
2021/07/27 13:19:18;;;;;;;;;;;;;;;;;;10322765;28;19993;-62
2021/07/27 13:24:15;;;;;;;;;;;;;;;;;;10326212;28;19917;-63
2021/07/27 13:29:12;;;;;;;;;;;;;;;;;;10334127;28;19928;-63
2021/07/27 13:34:09;;;;;;;;;;;;;;;;;;10327805;28;20294;-62
2021/07/27 13:39:07;;;;;;;;;;;;;;;;;;10297461;28;19913;-63
2021/07/27 13:44:04;;;;;;;;;;;;;;;;;;10316784;28;20302;-62
2021/07/27 13:49:01;;;;;;;;;;;;;;;;;;10318888;28;19917;-62
2021/07/27 13:53:59;;;;;;;;;;;;;;;;;;10327723;28;20374;-62
2021/07/27 13:58:56;;;;;;;;;;;;;;;;;;10316741;28;19975;-63
2021/07/27 14:03:53;;;;;;;;;;;;;;;;;;10319262;28;19916;-63
2021/07/27 14:08:51;;;;;;;;;;;;;;;;;;10308322;28;20056;-62
2021/07/27 14:13:48;;;;;;;;;;;;;;;;;;10315404;28;19925;-62
2021/07/27 14:18:45;;;;;;;;;;;;;;;;;;10333702;28;20352;-63
2021/07/27 14:23:42;;;;;;;;;;;;;;;;;;10319959;28;19917;-63
2021/07/27 14:28:40;;;;;;;;;;;;;;;;;;10322724;28;19924;-63
2021/07/27 14:33:37;;;;;;;;;;;;;;;;;;10329005;28;19931;-63
2021/07/27 14:38:35;;;;;;;;;;;;;;;;;;10307359;28;19916;-63
2021/07/27 14:43:32;;;;;;;;;;;;;;;;;;10318091;28;19917;-63
2021/07/27 14:48:29;;;;;;;;;;;;;;;;;;10330100;28;19921;-63
2021/07/27 14:53:27;;;;;;;;;;;;;;;;;;10323706;28;19985;-63
2021/07/27 14:58:24;;;;;;;;;;;;;;;;;;10302050;28;19925;-63
2021/07/27 15:03:21;;;;;;;;;;;;;;;;;;10312909;28;19925;-62
2021/07/27 15:08:18;;;;;;;;;;;;;;;;;;10311838;28;20389;-66
2021/07/27 15:13:16;;;;;;;;;;;;;;;;;;10306601;28;19917;-63
2021/07/27 15:18:13;;;;;;;;;;;;;;;;;;10310068;28;19928;-65
2021/07/27 15:23:10;;;;;;;;;;;;;;;;;;10314771;28;19917;-64
2021/07/27 15:28:07;;;;;;;;;;;;;;;;;;10327814;28;19929;-66
2021/07/27 15:33:05;;;;;;;;;;;;;;;;;;10314240;28;19953;-66
2021/07/27 15:38:02;;;;;;;;;;;;;;;;;;10324266;28;19920;-66
2021/07/27 15:42:59;;;;;;;;;;;;;;;;;;10313643;28;19928;-64
2021/07/27 15:47:56;;;;;;;;;;;;;;;;;;10315611;28;19955;-67
2021/07/27 15:52:54;;;;;;;;;;;;;;;;;;10312413;28;19974;-65
2021/07/27 15:57:51;;;;;;;;;;;;;;;;;;10318675;28;20504;-66
2021/07/27 16:02:49;;;;;;;;;;;;;;;;;;10321679;28;19917;-63
2021/07/27 16:07:46;;;;;;;;;;;;;;;;;;10310926;28;19920;-64
2021/07/27 16:12:43;;;;;;;;;;;;;;;;;;10313218;28;19982;-64
2021/07/27 16:17:40;;;;;;;;;;;;;;;;;;10315156;28;19921;-65
2021/07/27 16:22:38;;;;;;;;;;;;;;;;;;10321551;28;19924;-64
2021/07/27 16:27:35;;;;;;;;;;;;;;;;;;10321582;28;20066;-65
2021/07/27 16:32:32;;;;;;;;;;;;;;;;;;10296136;28;20240;-67
2021/07/27 16:37:29;;;;;;;;;;;;;;;;;;10322314;28;20289;-64
2021/07/27 16:42:27;;;;;;;;;;;;;;;;;;10320632;28;20298;-65
2021/07/27 16:47:24;;;;;;;;;;;;;;;;;;10314463;28;19925;-68
2021/07/27 16:52:22;;;;;;;;;;;;;;;;;;10312310;28;20357;-63
2021/07/27 16:57:19;;;;;;;;;;;;;;;;;;10296862;28;19929;-66
2021/07/27 17:02:16;;;;;;;;;;;;;;;;;;10318514;28;20564;-67
2021/07/27 17:07:14;;;;;;;;;;;;;;;;;;10330003;28;20415;-68
2021/07/27 17:12:14;;;;;;;;;;;;;;;;;;10329055;28;20365;-64
2021/07/27 17:17:11;;;;;;;;;;;;;;;;;;10333147;28;19927;-66
2021/07/27 17:22:08;;;;;;;;;;;;;;;;;;10323377;28;19925;-68
2021/07/27 17:27:05;;;;;;;;;;;;;;;;;;10323361;28;19943;-63
2021/07/27 17:32:03;;;;;;;;;;;;;;;;;;10333184;28;20009;-62
2021/07/27 17:37:00;;;;;;;;;;;;;;;;;;10326454;28;19917;-64
2021/07/27 17:41:57;;;;;;;;;;;;;;;;;;10320505;28;19936;-66
2021/07/27 17:46:55;;;;;;;;;;;;;;;;;;10332017;28;19921;-65
2021/07/27 17:51:52;;;;;;;;;;;;;;;;;;10325783;28;20020;-65
2021/07/27 17:56:49;;;;;;;;;;;;;;;;;;10326585;28;20443;-69
2021/07/27 18:01:47;;;;;;;;;;;;;;;;;;10324279;28;20011;-65
2021/07/27 18:06:44;;;;;;;;;;;;;;;;;;10313634;28;19925;-66
2021/07/27 18:11:41;;;;;;;;;;;;;;;;;;10315445;28;20271;-64
2021/07/27 18:16:40;;;;;;;;;;;;;;;;;;10323433;28;19972;-65
2021/07/27 18:21:37;;;;;;;;;;;;;;;;;;10314922;28;19917;-65
2021/07/27 18:26:34;;;;;;;;;;;;;;;;;;10328938;28;20394;-65
2021/07/27 18:31:32;;;;;;;;;;;;;;;;;;10324387;28;20489;-66
2021/07/27 18:36:29;;;;;;;;;;;;;;;;;;10324474;28;19917;-63
2021/07/27 18:41:26;;;;;;;;;;;;;;;;;;10328989;28;19920;-64
2021/07/27 18:46:23;;;;;;;;;;;;;;;;;;10332096;28;19916;-63
2021/07/27 18:51:21;;;;;;;;;;;;;;;;;;10325478;28;20325;-66
2021/07/27 18:56:18;;;;;;;;;;;;;;;;;;10324408;28;19920;-63
2021/07/27 19:01:17;;;;;;;;;;;;;;;;;;10318135;28;19913;-65
2021/07/27 19:06:15;;;;;;;;;;;;;;;;;;10317580;28;20002;-68
2021/07/27 19:11:12;;;;;;;;;;;;;;;;;;10332191;28;20070;-64
2021/07/27 19:16:09;;;;;;;;;;;;;;;;;;10322845;28;19920;-63
2021/07/27 19:21:06;;;;;;;;;;;;;;;;;;10317452;28;20378;-63
2021/07/27 19:26:04;;;;;;;;;;;;;;;;;;10318062;28;21043;-64
2021/07/27 19:31:01;;;;;;;;;;;;;;;;;;10319444;28;19931;-63
2021/07/27 19:35:58;;;;;;;;;;;;;;;;;;10316924;28;19983;-63
2021/07/27 19:40:56;;;;;;;;;;;;;;;;;;10319044;28;20279;-62
2021/07/27 19:50:54;;;;;;;;;;;;;;;;;;10312877;28;20429;-63
2021/07/27 19:55:51;;;;;;;;;;;;;;;;;;10317768;28;19917;-64
2021/07/27 20:00:51;;;;;;;;;;;;;;;;;;10328926;28;19918;-63
2021/07/27 20:05:48;;;;;;;;;;;;;;;;;;10321037;28;19917;-64
2021/07/27 20:10:46;;;;;;;;;;;;;;;;;;10321887;28;20594;-62
2021/07/27 20:15:43;;;;;;;;;;;;;;;;;;10318719;28;19932;-64
2021/07/27 20:20:40;;;;;;;;;;;;;;;;;;10321063;28;19928;-62
2021/07/27 20:25:39;;;;;;;;;;;;;;;;;;10320679;28;20443;-61
2021/07/27 20:30:37;;;;;;;;;;;;;;;;;;10313208;28;19921;-61
2021/07/27 20:35:35;;;;;;;;;;;;;;;;;;10319707;28;20263;-66
2021/07/27 20:40:33;;;;;;;;;;;;;;;;;;10317304;28;19994;-62
2021/07/27 20:45:30;;;;;;;;;;;;;;;;;;10329425;28;19982;-65
2021/07/27 20:50:27;;;;;;;;;;;;;;;;;;10319952;28;20021;-65
2021/07/27 20:55:24;;;;;;;;;;;;;;;;;;10316981;28;20287;-65
2021/07/27 21:00:22;;;;;;;;;;;;;;;;;;10321430;28;19916;-64
2021/07/27 21:05:19;;;;;;;;;;;;;;;;;;10314744;28;19921;-63
2021/07/27 21:10:16;;;;;;;;;;;;;;;;;;10324650;28;19951;-63
2021/07/27 21:15:13;;;;;;;;;;;;;;;;;;10322164;28;20065;-64
2021/07/27 21:20:11;;;;;;;;;;;;;;;;;;10312521;28;19921;-64
2021/07/27 21:25:08;;;;;;;;;;;;;;;;;;10315995;28;20024;-63
2021/07/27 21:30:05;;;;;;;;;;;;;;;;;;10300858;28;20052;-63
2021/07/27 21:35:02;;;;;;;;;;;;;;;;;;10313481;28;20646;-63
2021/07/27 21:40:00;;;;;;;;;;;;;;;;;;10325951;28;20035;-63
2021/07/27 21:44:57;;;;;;;;;;;;;;;;;;10331300;28;19917;-62
2021/07/27 21:49:54;;;;;;;;;;;;;;;;;;10327796;28;19928;-63
2021/07/27 21:54:51;;;;;;;;;;;;;;;;;;10315972;28;20383;-65
2021/07/27 21:59:49;;;;;;;;;;;;;;;;;;10310615;28;20014;-65
2021/07/27 22:04:46;;;;;;;;;;;;;;;;;;10317694;28;19917;-64
2021/07/27 22:09:43;;;;;;;;;;;;;;;;;;10321694;28;19925;-67
2021/07/27 22:14:40;;;;;;;;;;;;;;;;;;10318789;28;20012;-64
2021/07/27 22:19:37;;;;;;;;;;;;;;;;;;10315751;28;20735;-66
2021/07/27 22:24:35;;;;;;;;;;;;;;;;;;10330494;28;19928;-63
2021/07/27 22:29:32;;;;;;;;;;;;;;;;;;10326787;28;20020;-64
2021/07/27 22:34:29;;;;;;;;;;;;;;;;;;10319751;28;20475;-65
2021/07/27 22:39:26;;;;;;;;;;;;;;;;;;10320036;28;20469;-65
2021/07/27 22:44:24;;;;;;;;;;;;;;;;;;10323447;28;19921;-64
2021/07/27 22:49:21;;;;;;;;;;;;;;;;;;10321253;28;19924;-64
2021/07/27 22:54:19;;;;;;;;;;;;;;;;;;10325271;28;19921;-64
2021/07/27 22:59:17;;;;;;;;;;;;;;;;;;10309012;28;20248;-64
2021/07/27 23:04:15;;;;;;;;;;;;;;;;;;10323513;28;19921;-63
2021/07/27 23:09:12;;;;;;;;;;;;;;;;;;10326129;28;20294;-64
2021/07/27 23:14:09;;;;;;;;;;;;;;;;;;10323495;28;20019;-65
2021/07/27 23:19:06;;;;;;;;;;;;;;;;;;10318403;28;19917;-64
2021/07/27 23:24:04;;;;;;;;;;;;;;;;;;10329927;28;19917;-65
2021/07/27 23:29:01;;;;;;;;;;;;;;;;;;10328927;28;20011;-64
2021/07/27 23:33:58;;;;;;;;;;;;;;;;;;10325067;28;19917;-65
2021/07/27 23:38:55;;;;;;;;;;;;;;;;;;10308214;28;20257;-65
2021/07/27 23:43:53;;;;;;;;;;;;;;;;;;10329553;28;19925;-64
2021/07/27 23:48:51;;;;;;;;;;;;;;;;;;10326526;28;19978;-65
2021/07/27 23:53:48;;;;;;;;;;;;;;;;;;10335046;28;19977;-63
2021/07/27 23:58:45;;;;;;;;;;;;;;;;;;10303788;28;19966;-64
